Portada
METAR-TAF:

METAR-TAF

Aeropuertos :

Gagetown, Nuevo Brunswick, Canadá

latitud: 45-50N, longitud: 066-26W, altitud: 51 m

Observación

El informe se hizo hace 18 minutos, a las 01:00 UTC
Viento 9 kt del sur-suroeste
Temperatura 22°C
Humedad 73%
Presión 1021 hPa
Visibilidad: 24.1 km
Escasas nubes a una altura de 4000 ft
Escasas nubes a una altura de 24000 ft

METAR: CYCX 220100Z 20009KT 15SM FEW040 FEW240 22/17 A3015 RMK CU1CI1 DA1051FT SLP208

Hora: 22:18 (01:18 UTC)

Pronóstico

El informe se hizo hace 1 hora y 48 minutos, a las 23:30 UTC
Pronóstico válido del 21 a las 00 UTC al 21 a las 12 UTC
Viento 5 kt del sur
Visibilidad: 10 km
Cielo despejado

TAF: CYCX 202330Z 2100/2112 19005KT P6SM SKC RMK NXT FCST BY 210600Z

Observaciones y pronósticos meteorológicos de más de 4000 aeropuertos (mensajes METAR y TAF).

Los puntos amarillos y rojos representan las estaciones disponibles.

Ponga el ratón en el punto deseado para ver el nombre de la estación.

Haga clic para ver las observaciones y los pronósticos meteorológicos.

Para cambiar el mapa : haga clic en los botones verdes con una cruz de color negro para hacer un zoom, en el botón verde con un guión para alejar o en las flechas verdes para mapas adyacentes.


METAR-TAF: